Lancaster, MO

4:15 PM CDT on July 30, 2014 (GMT -0500)
KMOLANCA2 Elev 915 ft | 40.52 °N, 92.52 °W | Change Station

Current weather conditions updated 12 minutes ago

Clear
Clear
80.5 °F
Feels Like 81 °F
N
0.0
Wind Variable Wind from NW

Tomorrow is forecast to be nearly the same temperature as today. Showers possible early tomorrow night.

Today
High -- | Low -- °F
--% Chance of Precip.
Yesterday
High -- | Low -- °F
Precip. -- in
6:05 AM 8:27 PM
Waxing Crescent, 13% visible
Pressure 30.10 in
Visibility 10.0 miles
Clouds Clear
Heat Index 81 °F
Dew Point 61 °F
Humidity 51%
Rainfall 0.00 in
Snow Depth Not available.
UV 7 out of 12
Pollen 6.70 out of 12
Air Quality Not available.
Flu Activity Not available.
METAR KTVK 302055Z AUTO 00000KT 10SM CLR 26/13 A3010 RMK AO2

More Conditions Fewer Conditions

Pressure 30.10 in
Visibility 10.0 miles
Clouds Clear
Heat Index 81 °F
Dew Point 61 °F
Humidity 51%
Rainfall 0.00 in
Snow Depth Not available.
UV 7 out of 12
Pollen 6.70 out of 12
Air Quality Not available.
Flu Activity Not available.
METAR KTVK 302055Z AUTO 00000KT 10SM CLR 26/13 A3010 RMK AO2

More Conditions Fewer Conditions

10-Day Weather Forecast

Almanac

Astronomy

Jul. 30, 2014 Rise Set
Actual Time 6:05 AM CDT 8:27 PM CDT
Civil Twilight 5:34 AM CDT 8:57 PM CDT
Nautical Twilight 4:56 AM CDT 9:35 PM CDT
Astronomical Twilight 4:14 AM CDT 10:17 PM CDT
Moon 9:38 AM CDT 10:08 PM CDT
Length of Visible Light 15h 23m
Length of Day
14h 21m
Tomorrow will be 1m 59s shorter.
Waxing Crescent, 13% of the Moon is Illuminated
Today
Waxing Crescent
Aug 3
First Quarter
Aug 10
Full
Aug 17
Last Quarter
Aug 25
New

Today's Extremes

State Highs State Lows

Community

WunderPhotos

Upload Photos

1,739,178 photos uploaded!

WunderBlogs® & News

By Dr. Jeff Masters
Director of Meteorology, Weather Underground
By Kari Strenfel
Meteorologist, Weather Underground
By Christopher C. Burt
Weather Historian, Weather Underground
July 30, 2014
July 30, 2014
July 30, 2014

Nearby

Snow Depth

Station Depth Elevation
No new snow has been reported.

Earthquake Activity

City Distance Mag. Time & Date
No recent earthquake activity has been reported nearby.
Minimum magnitude displayed is 2.5.

Coastal Water Temperatures

Place Temperature
No Stations Reporting

Nearby Weather Stations

Station Location Temp. Heat Index Dew Point Humidity Wind Precip. Elev Updated Type
Lancaster, MO 80.5 °F 81 °F 61 °F 51% NW  at  0.0 mph - / hr 915 ft 4:02 PM CDT Normal
Wyacondah TWP, Bloomfield, IA 81.9 °F 81 °F 56 °F 41% NNE  at  1.6 mph 0.00 in / hr 886 ft 4:15 PM CDT Rapid Fire
Lake Sundown, Moravia, IA 78.5 °F 80 °F 58 °F 50% NE  at  1.0 mph 0.00 in / hr 945 ft 4:00 PM CDT Normal

Show More Stations Show Fewer Stations